sensor_id;sensor_type;location;lat;lon;timestamp;pressure;altitude;pressure_sealevel;temperature;humidity
43217;BME280;60511;42.686;23.300;2023-03-03T00:01:55;94705.63;;;21.95;43.85
43217;BME280;60511;42.686;23.300;2023-03-03T00:03:55;94735.66;;;22.10;45.42
43217;BME280;60511;42.686;23.300;2023-03-03T00:05:55;94544.22;;;20.84;44.56
43217;BME280;60511;42.686;23.300;2023-03-03T00:07:56;94729.63;;;22.00;43.54
43217;BME280;60511;42.686;23.300;2023-03-03T00:09:57;94695.19;;;21.81;44.09
43217;BME280;60511;42.686;23.300;2023-03-03T00:11:58;94711.28;;;22.18;38.70
43217;BME280;60511;42.686;23.300;2023-03-03T00:13:59;94724.72;;;21.78;44.48
43217;BME280;60511;42.686;23.300;2023-03-03T00:16:29;94726.06;;;21.72;48.07
43217;BME280;60511;42.686;23.300;2023-03-03T00:18:34;94721.59;;;21.39;49.04
43217;BME280;60511;42.686;23.300;2023-03-03T00:20:37;94726.34;;;21.54;46.31
43217;BME280;60511;42.686;23.300;2023-03-03T00:22:38;94688.94;;;21.28;47.41
43217;BME280;60511;42.686;23.300;2023-03-03T00:24:39;94705.38;;;21.48;45.44
43217;BME280;60511;42.686;23.300;2023-03-03T00:26:42;94722.94;;;21.33;45.78
43217;BME280;60511;42.686;23.300;2023-03-03T00:28:47;94582.53;;;20.81;45.71
43217;BME280;60511;42.686;23.300;2023-03-03T00:30:48;94714.38;;;21.80;46.56
43217;BME280;60511;42.686;23.300;2023-03-03T00:32:49;94711.38;;;21.81;45.75
43217;BME280;60511;42.686;23.300;2023-03-03T00:35:00;94593.06;;;21.11;46.15
43217;BME280;60511;42.686;23.300;2023-03-03T00:37:01;94695.19;;;21.81;44.47
43217;BME280;60511;42.686;23.300;2023-03-03T00:39:30;94706.94;;;22.01;46.03
43217;BME280;60511;42.686;23.300;2023-03-03T00:41:34;94646.31;;;21.55;45.67
43217;BME280;60511;42.686;23.300;2023-03-03T00:43:36;94641.94;;;21.62;45.20
43217;BME280;60511;42.686;23.300;2023-03-03T00:45:44;94691.56;;;22.02;43.75
43217;BME280;60511;42.686;23.300;2023-03-03T00:47:45;94666.97;;;22.03;42.13
43217;BME280;60511;42.686;23.300;2023-03-03T00:49:45;94688.34;;;22.24;43.64
43217;BME280;60511;42.686;23.300;2023-03-03T00:51:45;94659.44;;;22.09;43.12
43217;BME280;60511;42.686;23.300;2023-03-03T00:53:46;94652.78;;;22.06;41.45
43217;BME280;60511;42.686;23.300;2023-03-03T00:55:47;94690.94;;;22.33;42.69
43217;BME280;60511;42.686;23.300;2023-03-03T00:57:48;94682.84;;;22.33;42.69
43217;BME280;60511;42.686;23.300;2023-03-03T00:59:49;94674.75;;;22.21;43.02
43217;BME280;60511;42.686;23.300;2023-03-03T01:01:49;94658.13;;;22.19;42.77
43217;BME280;60511;42.686;23.300;2023-03-03T01:03:50;94628.69;;;21.98;42.39
43217;BME280;60511;42.686;23.300;2023-03-03T01:05:51;94658.94;;;22.19;42.46
43217;BME280;60511;42.686;23.300;2023-03-03T01:07:51;94670.91;;;22.34;42.23
43217;BME280;60511;42.686;23.300;2023-03-03T01:09:52;94615.34;;;21.89;42.65
43217;BME280;60511;42.686;23.300;2023-03-03T01:11:52;94665.69;;;22.25;42.49
43217;BME280;60511;42.686;23.300;2023-03-03T01:13:55;94641.44;;;22.13;42.54
43217;BME280;60511;42.686;23.300;2023-03-03T01:15:57;94654.81;;;22.10;42.32
43217;BME280;60511;42.686;23.300;2023-03-03T01:17:58;94669.41;;;22.08;44.89
43217;BME280;60511;42.686;23.300;2023-03-03T01:19:59;94660.97;;;22.10;44.18
43217;BME280;60511;42.686;23.300;2023-03-03T01:22:00;94627.94;;;21.85;44.21
43217;BME280;60511;42.686;23.300;2023-03-03T01:24:00;94636.47;;;21.87;43.26
43217;BME280;60511;42.686;23.300;2023-03-03T01:26:01;94678.47;;;21.76;45.59
43217;BME280;60511;42.686;23.300;2023-03-03T01:28:01;94646.44;;;21.58;46.18
43217;BME280;60511;42.686;23.300;2023-03-03T01:30:06;94673.00;;;21.72;47.46
43217;BME280;60511;42.686;23.300;2023-03-03T01:32:07;94665.03;;;21.63;46.27
43217;BME280;60511;42.686;23.300;2023-03-03T01:34:07;94662.78;;;21.65;47.46
43217;BME280;60511;42.686;23.300;2023-03-03T01:36:08;94685.47;;;21.64;46.34
43217;BME280;60511;42.686;23.300;2023-03-03T01:38:08;94646.88;;;21.60;47.55
43217;BME280;60511;42.686;23.300;2023-03-03T01:40:21;94640.81;;;21.39;46.36
43217;BME280;60511;42.686;23.300;2023-03-03T01:42:22;94638.13;;;21.51;45.25
43217;BME280;60511;42.686;23.300;2023-03-03T01:44:23;94659.44;;;21.69;47.00
43217;BME280;60511;42.686;23.300;2023-03-03T01:48:39;94662.03;;;21.53;46.66
43217;BME280;60511;42.686;23.300;2023-03-03T01:50:48;94660.56;;;21.55;46.51
43217;BME280;60511;42.686;23.300;2023-03-03T01:52:49;94629.06;;;21.43;47.01
43217;BME280;60511;42.686;23.300;2023-03-03T01:54:54;94620.06;;;21.39;47.70
43217;BME280;60511;42.686;23.300;2023-03-03T01:57:00;94648.13;;;21.51;46.66
43217;BME280;60511;42.686;23.300;2023-03-03T01:59:10;94461.75;;;20.39;46.56
43217;BME280;60511;42.686;23.300;2023-03-03T02:01:19;94542.63;;;20.71;48.18
43217;BME280;60511;42.686;23.300;2023-03-03T02:03:21;94544.88;;;20.94;46.36
43217;BME280;60511;42.686;23.300;2023-03-03T02:05:24;94664.63;;;21.90;43.93
43217;BME280;60511;42.686;23.300;2023-03-03T02:07:27;94640.84;;;21.92;44.07
43217;BME280;60511;42.686;23.300;2023-03-03T02:09:38;94658.88;;;22.03;43.95
43217;BME280;60511;42.686;23.300;2023-03-03T02:11:43;94648.09;;;22.03;44.14
43217;BME280;60511;42.686;23.300;2023-03-03T02:13:44;94653.81;;;22.02;43.70
43217;BME280;60511;42.686;23.300;2023-03-03T02:15:45;94628.25;;;21.96;42.67
43217;BME280;60511;42.686;23.300;2023-03-03T02:17:47;94618.72;;;21.86;43.24
43217;BME280;60511;42.686;23.300;2023-03-03T02:20:13;94646.78;;;21.97;43.40
43217;BME280;60511;42.686;23.300;2023-03-03T02:22:16;94632.19;;;21.86;42.98
43217;BME280;60511;42.686;23.300;2023-03-03T02:24:27;94638.47;;;21.90;44.75
43217;BME280;60511;42.686;23.300;2023-03-03T02:26:35;94651.59;;;21.92;44.61
43217;BME280;60511;42.686;23.300;2023-03-03T02:28:37;94627.41;;;21.79;42.95
43217;BME280;60511;42.686;23.300;2023-03-03T02:30:38;94670.13;;;21.93;44.25
43217;BME280;60511;42.686;23.300;2023-03-03T02:32:39;94476.28;;;20.87;42.91
43217;BME280;60511;42.686;23.300;2023-03-03T02:34:51;94613.63;;;21.69;44.61
43217;BME280;60511;42.686;23.300;2023-03-03T02:36:52;94662.06;;;21.93;44.17
43217;BME280;60511;42.686;23.300;2023-03-03T02:41:03;94646.31;;;21.95;43.22
43217;BME280;60511;42.686;23.300;2023-03-03T02:43:08;94625.47;;;21.80;44.64
43217;BME280;60511;42.686;23.300;2023-03-03T02:45:11;94663.63;;;21.82;44.71
43217;BME280;60511;42.686;23.300;2023-03-03T02:47:11;94646.31;;;21.55;46.13
43217;BME280;60511;42.686;23.300;2023-03-03T02:49:14;94607.09;;;21.17;46.49
43217;BME280;60511;42.686;23.300;2023-03-03T02:51:15;94615.81;;;21.14;47.28
43217;BME280;60511;42.686;23.300;2023-03-03T02:53:15;94615.69;;;21.22;46.95
43217;BME280;60511;42.686;23.300;2023-03-03T02:55:16;94471.47;;;20.32;47.16
43217;BME280;60511;42.686;23.300;2023-03-03T02:57:16;94515.50;;;20.39;46.49
43217;BME280;60511;42.686;23.300;2023-03-03T02:59:17;94660.91;;;21.17;47.48
43217;BME280;60511;42.686;23.300;2023-03-03T03:01:18;94657.09;;;21.05;49.56
43217;BME280;60511;42.686;23.300;2023-03-03T03:03:18;94620.19;;;21.06;47.78
43217;BME280;60511;42.686;23.300;2023-03-03T03:05:19;94585.34;;;20.60;47.79
43217;BME280;60511;42.686;23.300;2023-03-03T03:07:19;94611.34;;;20.93;48.43
43217;BME280;60511;42.686;23.300;2023-03-03T03:09:21;94645.56;;;21.05;48.04
43217;BME280;60511;42.686;23.300;2023-03-03T03:11:22;94637.81;;;21.16;45.62
43217;BME280;60511;42.686;23.300;2023-03-03T03:13:23;94627.34;;;21.26;45.85
43217;BME280;60511;42.686;23.300;2023-03-03T03:15:24;94619.75;;;21.04;46.14
43217;BME280;60511;42.686;23.300;2023-03-03T03:17:25;94557.09;;;20.79;46.44
43217;BME280;60511;42.686;23.300;2023-03-03T03:19:26;94632.19;;;21.33;46.29
43217;BME280;60511;42.686;23.300;2023-03-03T03:21:27;94503.84;;;20.47;45.43
43217;BME280;60511;42.686;23.300;2023-03-03T03:23:28;94647.91;;;21.43;45.92
43217;BME280;60511;42.686;23.300;2023-03-03T03:25:28;94633.16;;;21.65;45.01
43217;BME280;60511;42.686;23.300;2023-03-03T03:27:28;94634.03;;;21.70;43.97
43217;BME280;60511;42.686;23.300;2023-03-03T03:29:29;94609.97;;;21.49;43.61
43217;BME280;60511;42.686;23.300;2023-03-03T03:31:29;94620.56;;;21.70;43.32
43217;BME280;60511;42.686;23.300;2023-03-03T03:33:30;94626.38;;;21.84;44.28
43217;BME280;60511;42.686;23.300;2023-03-03T03:35:32;94634.56;;;21.87;42.19
43217;BME280;60511;42.686;23.300;2023-03-03T03:37:33;94611.03;;;21.72;43.55
43217;BME280;60511;42.686;23.300;2023-03-03T03:39:33;94641.41;;;21.85;44.94
43217;BME280;60511;42.686;23.300;2023-03-03T03:41:33;94617.16;;;21.85;43.48
43217;BME280;60511;42.686;23.300;2023-03-03T03:43:34;94640.25;;;21.98;42.65
43217;BME280;60511;42.686;23.300;2023-03-03T03:45:34;94618.38;;;21.87;42.47
43217;BME280;60511;42.686;23.300;2023-03-03T03:47:35;94612.22;;;21.87;42.80
43217;BME280;60511;42.686;23.300;2023-03-03T03:49:35;94585.56;;;21.70;42.67
43217;BME280;60511;42.686;23.300;2023-03-03T03:51:36;94468.75;;;20.93;43.78
43217;BME280;60511;42.686;23.300;2023-03-03T03:53:40;94618.72;;;21.58;43.84
43217;BME280;60511;42.686;23.300;2023-03-03T03:55:40;94580.00;;;21.50;44.11
43217;BME280;60511;42.686;23.300;2023-03-03T03:57:41;94591.22;;;21.52;43.75
43217;BME280;60511;42.686;23.300;2023-03-03T03:59:42;94619.09;;;21.84;43.38
43217;BME280;60511;42.686;23.300;2023-03-03T04:01:42;94614.38;;;21.81;44.17
43217;BME280;60511;42.686;23.300;2023-03-03T04:03:43;94537.09;;;21.29;43.39
43217;BME280;60511;42.686;23.300;2023-03-03T04:05:43;94595.38;;;21.62;44.26
43217;BME280;60511;42.686;23.300;2023-03-03T04:07:43;94579.31;;;21.41;46.78
43217;BME280;60511;42.686;23.300;2023-03-03T04:09:44;94628.59;;;20.92;48.07
43217;BME280;60511;42.686;23.300;2023-03-03T04:11:45;94485.31;;;19.84;49.41
43217;BME280;60511;42.686;23.300;2023-03-03T04:13:45;94625.69;;;20.73;48.78
43217;BME280;60511;42.686;23.300;2023-03-03T04:15:45;94611.34;;;20.93;48.04
43217;BME280;60511;42.686;23.300;2023-03-03T04:17:46;94609.44;;;21.06;46.62
43217;BME280;60511;42.686;23.300;2023-03-03T04:19:46;94600.59;;;21.05;46.50
43217;BME280;60511;42.686;23.300;2023-03-03T04:21:48;94616.84;;;21.21;46.29
43217;BME280;60511;42.686;23.300;2023-03-03T04:23:48;94490.28;;;20.32;46.73
43217;BME280;60511;42.686;23.300;2023-03-03T04:25:48;94598.91;;;21.13;48.16
43217;BME280;60511;42.686;23.300;2023-03-03T04:27:49;94606.09;;;21.09;47.44
43217;BME280;60511;42.686;23.300;2023-03-03T04:29:51;94579.50;;;20.95;46.37
43217;BME280;60511;42.686;23.300;2023-03-03T04:31:51;94617.94;;;21.33;46.68
43217;BME280;60511;42.686;23.300;2023-03-03T04:33:52;94592.03;;;21.28;46.20
43217;BME280;60511;42.686;23.300;2023-03-03T04:35:52;94593.16;;;21.27;45.85
43217;BME280;60511;42.686;23.300;2023-03-03T04:37:53;94611.13;;;21.48;45.84
43217;BME280;60511;42.686;23.300;2023-03-03T04:39:53;94605.03;;;21.38;45.86
43217;BME280;60511;42.686;23.300;2023-03-03T04:41:53;94613.00;;;21.35;48.30
43217;BME280;60511;42.686;23.300;2023-03-03T04:43:54;94608.97;;;21.28;45.59
43217;BME280;60511;42.686;23.300;2023-03-03T04:45:54;94615.22;;;21.57;44.94
43217;BME280;60511;42.686;23.300;2023-03-03T04:47:55;94599.94;;;21.61;44.83
43217;BME280;60511;42.686;23.300;2023-03-03T04:49:55;94618.69;;;21.70;44.34
43217;BME280;60511;42.686;23.300;2023-03-03T04:51:56;94584.03;;;21.56;43.93
43217;BME280;60511;42.686;23.300;2023-03-03T04:53:56;94573.50;;;21.51;43.84
43217;BME280;60511;42.686;23.300;2023-03-03T04:55:57;94553.69;;;21.31;44.37
43217;BME280;60511;42.686;23.300;2023-03-03T04:57:57;94621.59;;;21.65;44.40
43217;BME280;60511;42.686;23.300;2023-03-03T04:59:57;94579.31;;;21.41;44.57
43217;BME280;60511;42.686;23.300;2023-03-03T05:01:58;94618.25;;;21.68;43.77
43217;BME280;60511;42.686;23.300;2023-03-03T05:03:58;94608.16;;;21.53;44.73
43217;BME280;60511;42.686;23.300;2023-03-03T05:05:58;94619.53;;;21.46;44.30
43217;BME280;60511;42.686;23.300;2023-03-03T05:07:59;94603.25;;;21.42;46.05
43217;BME280;60511;42.686;23.300;2023-03-03T05:09:59;94600.56;;;21.42;44.97
43217;BME280;60511;42.686;23.300;2023-03-03T05:12:00;94624.88;;;21.58;44.20
43217;BME280;60511;42.686;23.300;2023-03-03T05:14:00;94591.69;;;21.42;44.23
43217;BME280;60511;42.686;23.300;2023-03-03T05:16:02;94565.22;;;21.32;43.96
43217;BME280;60511;42.686;23.300;2023-03-03T05:18:03;94574.63;;;21.50;43.66
43217;BME280;60511;42.686;23.300;2023-03-03T05:20:04;94631.13;;;21.75;44.03
43217;BME280;60511;42.686;23.300;2023-03-03T05:22:07;94626.41;;;21.72;44.00
43217;BME280;60511;42.686;23.300;2023-03-03T05:24:08;94595.63;;;21.44;44.98
43217;BME280;60511;42.686;23.300;2023-03-03T05:26:09;94639.25;;;21.62;45.24
43217;BME280;60511;42.686;23.300;2023-03-03T05:28:10;94630.03;;;21.39;46.79
43217;BME280;60511;42.686;23.300;2023-03-03T05:30:11;94621.88;;;21.23;46.16
43217;BME280;60511;42.686;23.300;2023-03-03T05:32:11;94514.03;;;20.42;47.36
43217;BME280;60511;42.686;23.300;2023-03-03T05:34:11;94593.41;;;20.97;45.69
43217;BME280;60511;42.686;23.300;2023-03-03T05:36:12;94628.94;;;21.27;46.26
43217;BME280;60511;42.686;23.300;2023-03-03T05:38:13;94602.13;;;20.94;46.24
43217;BME280;60511;42.686;23.300;2023-03-03T05:40:13;94616.97;;;21.13;46.35
43217;BME280;60511;42.686;23.300;2023-03-03T05:42:14;94585.91;;;21.03;45.12
43217;BME280;60511;42.686;23.300;2023-03-03T05:44:14;94601.59;;;21.13;48.48
43217;BME280;60511;42.686;23.300;2023-03-03T05:46:15;94634.09;;;21.20;46.79
43217;BME280;60511;42.686;23.300;2023-03-03T05:48:15;94595.88;;;21.02;46.58
43217;BME280;60511;42.686;23.300;2023-03-03T05:50:17;94634.09;;;21.20;46.51
43217;BME280;60511;42.686;23.300;2023-03-03T05:52:18;94628.84;;;21.12;48.12
43217;BME280;60511;42.686;23.300;2023-03-03T05:54:18;94635.13;;;21.16;46.55
43217;BME280;60511;42.686;23.300;2023-03-03T05:58:20;94643.50;;;21.26;46.78
43217;BME280;60511;42.686;23.300;2023-03-03T06:00:21;94602.06;;;21.03;46.80
43217;BME280;60511;42.686;23.300;2023-03-03T06:02:22;94634.66;;;21.14;46.78
43217;BME280;60511;42.686;23.300;2023-03-03T06:04:22;94598.00;;;21.09;45.67
43217;BME280;60511;42.686;23.300;2023-03-03T06:06:23;94619.63;;;21.37;44.82
43217;BME280;60511;42.686;23.300;2023-03-03T06:08:23;94553.38;;;21.08;44.60
43217;BME280;60511;42.686;23.300;2023-03-03T06:10:24;94601.09;;;21.60;43.35
43217;BME280;60511;42.686;23.300;2023-03-03T06:12:24;94599.66;;;21.51;42.55
43217;BME280;60511;42.686;23.300;2023-03-03T06:14:25;94638.06;;;21.76;43.36
43217;BME280;60511;42.686;23.300;2023-03-03T06:16:25;94637.22;;;21.59;42.85
43217;BME280;60511;42.686;23.300;2023-03-03T06:18:26;94616.34;;;21.56;43.37
43217;BME280;60511;42.686;23.300;2023-03-03T06:20:26;94611.63;;;21.41;44.33
43217;BME280;60511;42.686;23.300;2023-03-03T06:22:27;94608.94;;;21.41;43.68
43217;BME280;60511;42.686;23.300;2023-03-03T06:24:27;94642.00;;;21.78;42.59
43217;BME280;60511;42.686;23.300;2023-03-03T06:26:30;94644.25;;;21.76;42.54
43217;BME280;60511;42.686;23.300;2023-03-03T06:28:31;94655.22;;;21.83;42.59
43217;BME280;60511;42.686;23.300;2023-03-03T06:30:32;94634.50;;;21.59;42.46
43217;BME280;60511;42.686;23.300;2023-03-03T06:32:32;94642.28;;;21.49;43.18
43217;BME280;60511;42.686;23.300;2023-03-03T06:34:32;94648.91;;;21.51;43.96
43217;BME280;60511;42.686;23.300;2023-03-03T06:36:33;94636.69;;;21.54;42.58
43217;BME280;60511;42.686;23.300;2023-03-03T06:38:33;94618.94;;;21.53;43.93
43217;BME280;60511;42.686;23.300;2023-03-03T06:40:34;94646.50;;;21.74;43.42
43217;BME280;60511;42.686;23.300;2023-03-03T06:42:34;94630.25;;;21.71;43.64
43217;BME280;60511;42.686;23.300;2023-03-03T06:44:35;94543.84;;;20.86;43.51
43217;BME280;60511;42.686;23.300;2023-03-03T06:46:35;94659.34;;;21.53;44.88
43217;BME280;60511;42.686;23.300;2023-03-03T06:48:36;94649.91;;;21.10;48.18
43217;BME280;60511;42.686;23.300;2023-03-03T06:50:36;94656.06;;;21.22;46.20
43217;BME280;60511;42.686;23.300;2023-03-03T06:52:38;94596.56;;;20.87;45.68
43217;BME280;60511;42.686;23.300;2023-03-03T06:54:39;94650.25;;;21.33;46.87
43217;BME280;60511;42.686;23.300;2023-03-03T06:56:41;94664.13;;;20.85;48.51
43217;BME280;60511;42.686;23.300;2023-03-03T06:58:42;94650.81;;;20.89;48.18
43217;BME280;60511;42.686;23.300;2023-03-03T07:01:04;94569.44;;;20.22;49.30
43217;BME280;60511;42.686;23.300;2023-03-03T07:03:17;94660.53;;;20.81;48.93
43217;BME280;60511;42.686;23.300;2023-03-03T07:05:18;94654.94;;;20.74;48.51
43217;BME280;60511;42.686;23.300;2023-03-03T07:07:23;94612.22;;;20.60;49.18
43217;BME280;60511;42.686;23.300;2023-03-03T07:09:26;94666.06;;;20.85;47.38
43217;BME280;60511;42.686;23.300;2023-03-03T07:11:29;94662.00;;;20.66;49.98
43217;BME280;60511;42.686;23.300;2023-03-03T07:13:31;94608.13;;;20.42;49.23
43217;BME280;60511;42.686;23.300;2023-03-03T07:15:35;94664.50;;;21.09;46.62
43217;BME280;60511;42.686;23.300;2023-03-03T07:17:39;94668.88;;;21.25;47.44
43217;BME280;60511;42.686;23.300;2023-03-03T07:19:42;94654.84;;;21.32;45.74
43217;BME280;60511;42.686;23.300;2023-03-03T07:21:42;94631.41;;;21.20;44.35
43217;BME280;60511;42.686;23.300;2023-03-03T07:23:44;94666.28;;;21.66;42.84
43217;BME280;60511;42.686;23.300;2023-03-03T07:25:45;94640.81;;;21.51;45.16
43217;BME280;60511;42.686;23.300;2023-03-03T07:27:45;94668.88;;;21.50;44.98
43217;BME280;60511;42.686;23.300;2023-03-03T07:29:48;94537.81;;;20.77;43.96
43217;BME280;60511;42.686;23.300;2023-03-03T07:31:49;94662.25;;;21.35;46.40
43217;BME280;60511;42.686;23.300;2023-03-03T07:33:51;94640.38;;;21.49;44.43
43217;BME280;60511;42.686;23.300;2023-03-03T07:35:53;94658.28;;;21.70;42.56
43217;BME280;60511;42.686;23.300;2023-03-03T07:37:54;94647.91;;;21.43;46.25
43217;BME280;60511;42.686;23.300;2023-03-03T07:39:55;94646.44;;;21.46;44.41
43217;BME280;60511;42.686;23.300;2023-03-03T07:42:08;94647.19;;;21.71;44.26
43217;BME280;60511;42.686;23.300;2023-03-03T07:44:20;94600.44;;;21.26;43.91
43217;BME280;60511;42.686;23.300;2023-03-03T07:48:34;94609.97;;;21.36;44.50
43217;BME280;60511;42.686;23.300;2023-03-03T07:50:35;94659.88;;;21.71;42.46
43217;BME280;60511;42.686;23.300;2023-03-03T07:52:40;94646.53;;;21.62;44.49
43217;BME280;60511;42.686;23.300;2023-03-03T07:54:42;94637.34;;;21.26;45.31
43217;BME280;60511;42.686;23.300;2023-03-03T07:56:45;94637.47;;;21.17;45.80
43217;BME280;60511;42.686;23.300;2023-03-03T07:58:46;94618.31;;;21.06;47.32
43217;BME280;60511;42.686;23.300;2023-03-03T08:01:23;94646.44;;;21.58;44.29
43217;BME280;60511;42.686;23.300;2023-03-03T08:03:27;94612.44;;;21.41;43.40
43217;BME280;60511;42.686;23.300;2023-03-03T08:05:39;94630.94;;;21.55;46.29
43217;BME280;60511;42.686;23.300;2023-03-03T08:07:40;94656.88;;;21.60;44.82
43217;BME280;60511;42.686;23.300;2023-03-03T08:09:49;94642.28;;;21.36;45.61
43217;BME280;60511;42.686;23.300;2023-03-03T08:11:58;94644.06;;;21.32;48.39
43217;BME280;60511;42.686;23.300;2023-03-03T08:14:01;94649.34;;;21.28;45.31
43217;BME280;60511;42.686;23.300;2023-03-03T08:16:20;94674.25;;;21.38;46.69
43217;BME280;60511;42.686;23.300;2023-03-03T08:18:37;94650.91;;;21.42;47.10
43217;BME280;60511;42.686;23.300;2023-03-03T08:20:49;94628.94;;;21.27;47.52
43217;BME280;60511;42.686;23.300;2023-03-03T08:22:50;94640.47;;;21.53;45.47
43217;BME280;60511;42.686;23.300;2023-03-03T08:24:50;94648.09;;;21.38;46.65
43217;BME280;60511;42.686;23.300;2023-03-03T08:26:50;94617.75;;;21.01;46.92
43217;BME280;60511;42.686;23.300;2023-03-03T08:28:52;94637.56;;;20.96;49.51
43217;BME280;60511;42.686;23.300;2023-03-03T08:30:53;94639.94;;;20.98;47.47
43217;BME280;60511;42.686;23.300;2023-03-03T08:32:53;94612.56;;;20.83;48.95
43217;BME280;60511;42.686;23.300;2023-03-03T08:34:53;94590.84;;;20.64;49.07
43217;BME280;60511;42.686;23.300;2023-03-03T08:36:54;94636.78;;;21.20;46.16
43217;BME280;60511;42.686;23.300;2023-03-03T08:38:57;94641.63;;;21.15;48.40
43217;BME280;60511;42.686;23.300;2023-03-03T08:40:57;94612.81;;;21.03;45.22
43217;BME280;60511;42.686;23.300;2023-03-03T08:42:58;94620.41;;;21.50;44.03
43217;BME280;60511;42.686;23.300;2023-03-03T08:44:58;94540.03;;;20.99;43.98
43217;BME280;60511;42.686;23.300;2023-03-03T08:46:59;94617.13;;;21.57;43.66
43217;BME280;60511;42.686;23.300;2023-03-03T08:48:59;94528.81;;;21.10;43.28
43217;BME280;60511;42.686;23.300;2023-03-03T08:51:00;94478.41;;;20.70;44.33
43217;BME280;60511;42.686;23.300;2023-03-03T08:53:00;94630.75;;;21.48;44.89
43217;BME280;60511;42.686;23.300;2023-03-03T08:55:01;94620.53;;;21.41;42.63
43217;BME280;60511;42.686;23.300;2023-03-03T08:57:01;94447.72;;;20.34;44.47
43217;BME280;60511;42.686;23.300;2023-03-03T08:59:02;94588.97;;;21.42;42.09
43217;BME280;60511;42.686;23.300;2023-03-03T09:01:03;94626.78;;;21.70;43.62
43217;BME280;60511;42.686;23.300;2023-03-03T09:03:04;94614.59;;;21.48;47.33
43217;BME280;60511;42.686;23.300;2023-03-03T09:05:08;94574.81;;;21.04;43.45
43217;BME280;60511;42.686;23.300;2023-03-03T09:07:09;94631.94;;;21.63;44.48
43217;BME280;60511;42.686;23.300;2023-03-03T09:09:09;94633.97;;;21.41;44.98
43217;BME280;60511;42.686;23.300;2023-03-03T09:11:13;94625.09;;;21.41;44.83
43217;BME280;60511;42.686;23.300;2023-03-03T09:13:16;94639.94;;;21.47;45.94
43217;BME280;60511;42.686;23.300;2023-03-03T09:15:32;94624.22;;;21.49;44.70
43217;BME280;60511;42.686;23.300;2023-03-03T09:17:34;94643.84;;;21.62;44.23
43217;BME280;60511;42.686;23.300;2023-03-03T09:19:36;94643.44;;;21.48;46.19
43217;BME280;60511;42.686;23.300;2023-03-03T09:21:36;94622.34;;;21.25;46.83
43217;BME280;60511;42.686;23.300;2023-03-03T09:23:37;94621.63;;;21.40;45.27
43217;BME280;60511;42.686;23.300;2023-03-03T09:25:38;94518.75;;;20.70;45.47
43217;BME280;60511;42.686;23.300;2023-03-03T09:27:38;94502.97;;;20.43;46.35
43217;BME280;60511;42.686;23.300;2023-03-03T09:29:40;94611.00;;;21.07;46.69
43217;BME280;60511;42.686;23.300;2023-03-03T09:31:58;94634.00;;;21.17;45.80
43217;BME280;60511;42.686;23.300;2023-03-03T09:34:00;94623.69;;;21.31;46.14
43217;BME280;60511;42.686;23.300;2023-03-03T09:36:23;94623.88;;;21.38;45.16
43217;BME280;60511;42.686;23.300;2023-03-03T09:38:32;94631.75;;;21.19;48.86
43217;BME280;60511;42.686;23.300;2023-03-03T09:56:16;94626.88;;;21.61;46.57
43217;BME280;60511;42.686;23.300;2023-03-03T10:01:34;94605.50;;;21.16;46.04
43217;BME280;60511;42.686;23.300;2023-03-03T10:04:57;94625.94;;;21.04;49.15
43217;BME280;60511;42.686;23.300;2023-03-03T10:06:48;94608.50;;;21.26;45.20
43217;BME280;60511;42.686;23.300;2023-03-03T10:11:19;94619.16;;;21.60;43.93
43217;BME280;60511;42.686;23.300;2023-03-03T10:16:06;94614.84;;;21.71;43.26
43217;BME280;60511;42.686;23.300;2023-03-03T10:23:18;94621.22;;;21.79;43.48
43217;BME280;60511;42.686;23.300;2023-03-03T10:25:52;94608.28;;;21.56;45.87
43217;BME280;60511;42.686;23.300;2023-03-03T10:32:55;94602.91;;;21.32;46.98
43217;BME280;60511;42.686;23.300;2023-03-03T10:35:07;94599.75;;;21.42;47.18
43217;BME280;60511;42.686;23.300;2023-03-03T10:41:46;94593.63;;;21.17;46.63
43217;BME280;60511;42.686;23.300;2023-03-03T10:57:58;94588.69;;;20.70;49.33
43217;BME280;60511;42.686;23.300;2023-03-03T11:00:15;94603.59;;;20.67;51.08
43217;BME280;60511;42.686;23.300;2023-03-03T11:05:01;94586.56;;;20.75;51.36
43217;BME280;60511;42.686;23.300;2023-03-03T11:11:50;94579.78;;;21.31;47.00
43217;BME280;60511;42.686;23.300;2023-03-03T11:29:50;94563.69;;;22.15;44.26
43217;BME280;60511;42.686;23.300;2023-03-03T11:32:02;94547.06;;;21.69;43.79
43217;BME280;60511;42.686;23.300;2023-03-03T11:36:48;94579.09;;;21.58;43.83
43217;BME280;60511;42.686;23.300;2023-03-03T11:39:04;94563.81;;;21.62;47.10
43217;BME280;60511;42.686;23.300;2023-03-03T11:41:14;94554.50;;;21.88;42.55
43217;BME280;60511;42.686;23.300;2023-03-03T11:43:30;94504.94;;;21.77;44.18
43217;BME280;60511;42.686;23.300;2023-03-03T11:48:01;94556.34;;;22.00;44.56
43217;BME280;60511;42.686;23.300;2023-03-03T11:50:19;94549.41;;;21.99;43.45
43217;BME280;60511;42.686;23.300;2023-03-03T11:52:42;94549.16;;;22.04;44.55
43217;BME280;60511;42.686;23.300;2023-03-03T11:55:18;94456.94;;;21.38;44.48
43217;BME280;60511;42.686;23.300;2023-03-03T11:57:21;94546.97;;;21.94;44.89
43217;BME280;60511;42.686;23.300;2023-03-03T12:00:02;94548.72;;;22.02;44.30
43217;BME280;60511;42.686;23.300;2023-03-03T12:02:22;94566.47;;;22.03;45.24
43217;BME280;60511;42.686;23.300;2023-03-03T12:04:35;94543.59;;;22.13;43.63
43217;BME280;60511;42.686;23.300;2023-03-03T12:11:47;94532.09;;;22.44;37.48
43217;BME280;60511;42.686;23.300;2023-03-03T12:14:00;94558.97;;;22.56;36.71
43217;BME280;60511;42.686;23.300;2023-03-03T12:16:21;94517.66;;;22.36;36.67
43217;BME280;60511;42.686;23.300;2023-03-03T12:21:05;94524.88;;;22.48;36.56
43217;BME280;60511;42.686;23.300;2023-03-03T12:26:03;94559.41;;;22.58;35.97
43217;BME280;60511;42.686;23.300;2023-03-03T12:28:27;94542.34;;;22.54;36.61